Time;durP1;ratioP1;P1;durP2;ratioP2;P2;SDS_P1;SDS_P2;PMS_P1;PMS_P2;Temp;Humidity;BMP_temperature;BMP_pressure;BME280_temperature;BME280_humidity;BME280_pressure;Samples;Min_cycle;Max_cycle;Signal;HPM_P1;HPM_P2
2021/12/30 00:02:02;;;;;;;;;1.00;0.00;;;;;15.31;74.24;100890.56;5096306;27;60157;-64
2021/12/30 00:04:27;;;;;;;;;1.00;0.00;;;;;15.30;74.25;100888.91;5097002;27;45537;-63
2021/12/30 00:06:53;;;;;;;;;1.00;1.00;;;;;15.30;73.96;100891.56;5095763;27;69170;-62
2021/12/30 00:09:20;;;;;;;;;0.75;0.75;;;;;15.30;74.46;100896.84;5096870;27;45402;-61
2021/12/30 00:11:45;;;;;;;;;1.00;1.00;;;;;15.28;73.91;100899.66;5096973;27;45273;-64
2021/12/30 00:14:10;;;;;;;;;3.25;1.00;;;;;15.28;74.19;100900.50;5097730;27;45296;-63
2021/12/30 00:16:36;;;;;;;;;1.50;1.50;;;;;15.28;74.30;100902.28;5099437;27;73963;-62
2021/12/30 00:19:01;;;;;;;;;2.75;1.00;;;;;15.28;74.09;100903.16;5081600;27;45465;-61
2021/12/30 00:21:27;;;;;;;;;1.00;1.00;;;;;15.28;74.27;100910.25;5100474;27;45568;-61
2021/12/30 00:23:52;;;;;;;;;1.00;1.00;;;;;15.27;74.01;100909.44;5100539;27;45343;-63
2021/12/30 00:26:18;;;;;;;;;2.50;2.00;;;;;15.27;74.16;100903.28;5099977;27;45450;-61
2021/12/30 00:28:43;;;;;;;;;1.00;1.00;;;;;15.27;74.22;100898.84;5099848;27;45426;-63
2021/12/30 00:31:08;;;;;;;;;1.00;1.00;;;;;15.27;74.11;100901.47;5081125;27;60462;-63
2021/12/30 00:33:34;;;;;;;;;1.00;1.00;;;;;15.27;74.11;100898.00;5099511;27;62977;-62
2021/12/30 00:36:06;;;;;;;;;1.25;1.00;;;;;15.27;73.95;100898.00;5099993;27;47224;-63
2021/12/30 00:38:32;;;;;;;;;0.25;0.25;;;;;15.28;74.18;100903.16;5100026;27;45393;-62
2021/12/30 00:40:58;;;;;;;;;0.00;0.00;;;;;15.27;74.19;100890.91;5099809;27;45349;-62
2021/12/30 00:43:23;;;;;;;;;1.00;1.00;;;;;15.27;74.06;100908.56;5100069;27;45434;-63
2021/12/30 00:45:49;;;;;;;;;1.00;1.00;;;;;15.26;74.11;100905.13;5099496;27;53856;-63
2021/12/30 00:48:14;;;;;;;;;0.00;0.00;;;;;15.27;74.22;100908.56;5099812;27;45500;-64
2021/12/30 00:50:40;;;;;;;;;0.00;0.00;;;;;15.26;74.10;100909.56;5100055;27;45326;-63
2021/12/30 00:53:05;;;;;;;;;0.00;0.00;;;;;15.27;74.37;100909.44;5099963;27;45579;-62
2021/12/30 00:55:31;;;;;;;;;0.25;0.25;;;;;15.26;73.97;100922.81;5099748;27;46274;-61
2021/12/30 00:57:56;;;;;;;;;0.00;0.00;;;;;15.26;74.11;100922.81;5099085;27;63809;-61
2021/12/30 01:00:22;;;;;;;;;2.00;0.25;;;;;15.27;74.01;100924.47;5099701;27;45389;-63
2021/12/30 01:02:47;;;;;;;;;1.00;1.00;;;;;15.26;73.97;100926.28;5081504;27;45358;-64
2021/12/30 01:05:13;;;;;;;;;0.00;0.00;;;;;15.26;74.32;100931.59;5099470;27;45327;-63
2021/12/30 01:07:39;;;;;;;;;0.00;0.00;;;;;15.26;74.13;100928.94;5081187;27;45380;-61
2021/12/30 01:10:05;;;;;;;;;0.00;0.00;;;;;15.26;74.43;100934.22;5098925;27;65673;-62
2021/12/30 01:12:30;;;;;;;;;0.75;0.75;;;;;15.26;74.56;100939.53;5099600;27;45648;-63
2021/12/30 01:14:56;;;;;;;;;0.00;0.00;;;;;15.27;74.37;100943.00;5099229;27;46424;-63
2021/12/30 01:17:39;;;;;;;;;0.00;0.00;;;;;15.26;74.13;100955.41;5099473;27;45230;-62
2021/12/30 01:20:05;;;;;;;;;0.00;0.00;;;;;15.26;74.08;100955.41;5099546;27;45291;-62
2021/12/30 01:22:33;;;;;;;;;0.25;0.25;;;;;15.26;74.31;100960.72;5099444;27;45170;-63
2021/12/30 01:24:58;;;;;;;;;0.00;0.00;;;;;15.26;74.02;100955.41;5099272;27;46314;-61
2021/12/30 01:27:24;;;;;;;;;1.00;1.00;;;;;15.27;74.19;100967.66;5098220;27;45441;-62
2021/12/30 01:29:49;;;;;;;;;1.00;0.00;;;;;15.27;73.97;100970.31;5099464;27;45776;-63
2021/12/30 01:32:15;;;;;;;;;1.00;0.00;;;;;15.27;74.23;100970.31;5098418;27;67849;-62
2021/12/30 01:34:40;;;;;;;;;0.25;0.25;;;;;15.28;74.09;100981.72;5099041;27;46677;-63
2021/12/30 01:37:05;;;;;;;;;0.25;0.25;;;;;15.28;74.12;100985.22;5099188;27;45439;-62
2021/12/30 01:39:33;;;;;;;;;0.25;0.00;;;;;15.28;74.08;100987.00;5099243;27;45287;-62
2021/12/30 01:41:58;;;;;;;;;0.00;0.00;;;;;15.28;74.30;100987.84;5099222;27;45490;-62
2021/12/30 01:44:24;;;;;;;;;0.00;0.00;;;;;15.28;74.03;100987.84;5080022;27;46053;-62
2021/12/30 01:46:50;;;;;;;;;0.75;0.75;;;;;15.28;74.14;100989.66;5098990;27;45169;-64
2021/12/30 01:49:15;;;;;;;;;1.00;0.50;;;;;15.28;74.17;100987.00;5099070;27;45309;-62
2021/12/30 01:51:41;;;;;;;;;1.50;0.00;;;;;15.27;74.28;100993.28;5098047;27;65668;-62
2021/12/30 01:54:07;;;;;;;;;0.00;0.00;;;;;15.26;74.46;100995.13;5080435;27;46383;-63
2021/12/30 01:56:32;;;;;;;;;0.00;0.00;;;;;15.26;74.68;100989.81;5097665;27;72562;-64
2021/12/30 01:58:58;;;;;;;;;1.00;0.25;;;;;15.25;74.41;100985.53;5098801;27;45388;-61
2021/12/30 02:01:23;;;;;;;;;0.00;0.00;;;;;15.26;74.64;100995.13;5098716;27;45275;-63
2021/12/30 02:03:48;;;;;;;;;2.25;0.50;;;;;15.25;74.68;100996.09;5098538;27;46217;-63
2021/12/30 02:06:14;;;;;;;;;1.00;0.00;;;;;15.27;74.79;100990.66;5097637;27;68643;-63
2021/12/30 02:08:39;;;;;;;;;0.75;0.00;;;;;15.26;74.75;100994.28;5098754;27;45425;-61
2021/12/30 02:11:05;;;;;;;;;0.00;0.00;;;;;15.26;74.63;100989.81;5097926;27;61169;-62
2021/12/30 02:13:30;;;;;;;;;1.00;1.00;;;;;15.24;75.13;100999.75;5097574;27;67967;-62
2021/12/30 02:16:02;;;;;;;;;1.75;0.00;;;;;15.25;74.64;100995.25;5062311;27;70862;-62
2021/12/30 02:18:28;;;;;;;;;0.00;0.00;;;;;15.24;74.66;101005.03;5098740;27;45399;-62
2021/12/30 02:20:55;;;;;;;;;0.50;0.00;;;;;15.24;74.66;101012.97;5098561;27;45551;-62
2021/12/30 02:23:22;;;;;;;;;0.00;0.00;;;;;15.23;74.60;101016.59;5098290;27;46444;-63
2021/12/30 02:25:48;;;;;;;;;1.25;1.00;;;;;15.22;75.04;101020.25;5098364;27;45288;-64
2021/12/30 02:28:14;;;;;;;;;0.75;0.00;;;;;15.22;75.15;101032.63;5078539;27;45410;-61
2021/12/30 02:30:40;;;;;;;;;0.75;0.75;;;;;15.21;75.02;101031.81;5079493;27;45594;-62
2021/12/30 02:33:05;;;;;;;;;1.00;1.00;;;;;15.22;75.29;101020.25;5097929;27;48495;-63
2021/12/30 02:35:31;;;;;;;;;0.75;0.75;;;;;15.21;75.37;101023.03;5097827;27;53224;-62
2021/12/30 02:37:57;;;;;;;;;4.50;1.50;;;;;15.21;74.95;101031.81;5098068;27;45298;-63
2021/12/30 02:40:27;;;;;;;;;0.00;0.00;;;;;15.19;75.38;101028.50;5098116;27;45563;-63
2021/12/30 02:42:52;;;;;;;;;0.50;0.50;;;;;15.20;75.38;101030.16;5097922;27;45461;-63
2021/12/30 02:45:17;;;;;;;;;0.00;0.00;;;;;15.19;75.28;101036.44;5097324;27;62113;-62
2021/12/30 02:47:43;;;;;;;;;1.50;0.50;;;;;15.19;75.43;101039.06;5097092;27;68401;-62
2021/12/30 02:50:08;;;;;;;;;0.75;0.00;;;;;15.19;75.52;101033.78;5097598;27;53128;-62
2021/12/30 02:52:34;;;;;;;;;0.00;0.00;;;;;15.17;75.44;101027.81;5079606;27;45443;-64
2021/12/30 02:54:59;;;;;;;;;1.75;1.00;;;;;15.18;75.52;101037.41;5096930;27;73488;-63
2021/12/30 02:57:25;;;;;;;;;0.00;0.00;;;;;15.17;75.61;101027.81;5079712;27;45317;-64
2021/12/30 02:59:50;;;;;;;;;1.00;1.00;;;;;15.16;75.54;101034.09;5079694;27;45280;-63
2021/12/30 03:02:16;;;;;;;;;0.00;0.00;;;;;15.16;75.74;101038.53;5096890;27;70913;-62
2021/12/30 03:04:41;;;;;;;;;1.00;1.00;;;;;15.16;75.58;101036.75;5097084;27;64030;-63
2021/12/30 03:07:07;;;;;;;;;1.50;1.00;;;;;15.15;75.55;101040.38;5097753;27;45272;-63
2021/12/30 03:09:32;;;;;;;;;1.00;1.00;;;;;15.16;75.44;101044.69;5097832;27;45203;-63
2021/12/30 03:11:57;;;;;;;;;1.00;1.00;;;;;15.14;75.41;101036.88;5096536;27;75524;-62
2021/12/30 03:14:25;;;;;;;;;1.00;0.00;;;;;15.14;75.35;101039.53;5097120;27;54643;-64
2021/12/30 03:16:50;;;;;;;;;1.00;1.00;;;;;15.16;75.68;101038.53;5097893;27;45425;-62
2021/12/30 03:19:16;;;;;;;;;0.00;0.00;;;;;15.15;75.75;101037.72;5097758;27;45282;-62
2021/12/30 03:21:42;;;;;;;;;1.00;0.00;;;;;15.16;75.50;101042.03;5097269;27;46064;-63
2021/12/30 03:24:08;;;;;;;;;1.00;0.00;;;;;15.15;75.47;101048.31;5079441;27;45696;-61
2021/12/30 03:26:35;;;;;;;;;0.00;0.00;;;;;15.16;75.50;101059.72;5096742;27;62806;-63
2021/12/30 03:29:00;;;;;;;;;1.25;0.00;;;;;15.16;75.29;101060.56;5097276;27;45520;-62
2021/12/30 03:31:26;;;;;;;;;0.00;0.00;;;;;15.15;75.51;101058.91;5079052;27;46402;-63
2021/12/30 03:33:51;;;;;;;;;0.00;0.00;;;;;15.14;75.41;101060.69;5097365;27;45352;-61
2021/12/30 03:36:17;;;;;;;;;0.00;0.00;;;;;15.16;75.36;101059.72;5097545;27;45347;-62
2021/12/30 03:38:44;;;;;;;;;0.25;0.00;;;;;15.16;75.16;101062.34;5097118;27;45394;-62
2021/12/30 03:41:11;;;;;;;;;0.50;0.50;;;;;15.17;75.45;101062.22;5097058;27;48372;-63
2021/12/30 03:43:37;;;;;;;;;0.25;0.00;;;;;15.16;75.14;101057.06;5096937;27;49827;-63
2021/12/30 03:46:03;;;;;;;;;1.00;0.00;;;;;15.17;75.17;101058.72;5097179;27;45332;-62
2021/12/30 03:54:26;;;;;;;;;0.00;0.00;;;;;15.15;75.10;101050.97;4415677;28;47084;-63
2021/12/30 03:56:52;;;;;;;;;0.00;0.00;;;;;15.16;75.10;101051.78;5063212;28;45310;-63
2021/12/30 03:59:17;;;;;;;;;0.00;0.00;;;;;15.16;75.00;101052.63;5062412;28;60259;-62
2021/12/30 04:01:42;;;;;;;;;0.00;0.00;;;;;15.17;74.83;101059.56;5063005;28;45369;-61
2021/12/30 04:04:08;;;;;;;;;0.00;0.00;;;;;15.18;74.84;101055.09;5062368;28;65271;-62
2021/12/30 04:06:33;;;;;;;;;0.50;0.00;;;;;15.19;74.46;101047.03;5062194;28;67950;-62
2021/12/30 04:08:59;;;;;;;;;0.00;0.00;;;;;15.18;74.57;101048.00;5063250;28;45323;-63
2021/12/30 04:11:25;;;;;;;;;2.50;0.00;;;;;15.18;74.79;101037.41;5063177;28;46418;-64
2021/12/30 04:13:51;;;;;;;;;0.00;0.00;;;;;15.20;74.48;101045.19;5061278;28;45792;-64
2021/12/30 04:16:18;;;;;;;;;0.00;0.00;;;;;15.20;74.69;101048.69;5078801;28;45196;-63
2021/12/30 04:18:45;;;;;;;;;0.25;0.00;;;;;15.21;74.57;101047.69;5061950;28;45315;-63
2021/12/30 04:21:11;;;;;;;;;0.00;0.00;;;;;15.21;74.42;101053.00;5062731;28;45427;-65
2021/12/30 04:23:36;;;;;;;;;0.00;0.00;;;;;15.23;74.19;101052.81;5062092;28;63541;-62
2021/12/30 04:26:02;;;;;;;;;0.00;0.00;;;;;15.22;74.10;101054.66;5061957;28;69230;-63
2021/12/30 04:28:27;;;;;;;;;0.00;0.00;;;;;15.23;74.27;101061.63;5061850;28;66601;-63
2021/12/30 04:30:53;;;;;;;;;0.00;0.00;;;;;15.25;73.99;101058.78;5062530;28;46172;-64
2021/12/30 04:33:19;;;;;;;;;0.00;0.00;;;;;15.26;74.19;101055.16;5061737;28;65687;-65
2021/12/30 04:35:46;;;;;;;;;1.00;0.00;;;;;15.25;74.11;101059.66;5062801;28;45433;-63
2021/12/30 04:38:11;;;;;;;;;0.00;0.00;;;;;15.26;73.74;101060.47;5062633;28;45496;-64
2021/12/30 04:40:37;;;;;;;;;0.00;0.00;;;;;15.27;73.79;101051.53;5061651;28;68254;-63
2021/12/30 04:43:02;;;;;;;;;1.00;0.00;;;;;15.27;73.94;101054.19;5061449;28;72627;-64
2021/12/30 04:45:29;;;;;;;;;0.00;0.00;;;;;15.28;73.89;101043.44;5078411;28;45734;-65
2021/12/30 04:47:54;;;;;;;;;0.00;0.00;;;;;15.28;73.74;101039.97;5078033;28;45330;-63
2021/12/30 04:50:19;;;;;;;;;1.75;0.00;;;;;15.27;73.91;101049.72;5061527;28;67553;-63
2021/12/30 04:52:45;;;;;;;;;0.00;0.00;;;;;15.28;73.61;101053.19;5062476;28;45355;-65
2021/12/30 04:55:10;;;;;;;;;0.00;0.00;;;;;15.28;73.46;101051.41;5061387;28;66330;-62
2021/12/30 04:57:36;;;;;;;;;0.50;0.00;;;;;15.29;73.71;101049.56;5062432;28;45338;-64
2021/12/30 05:00:04;;;;;;;;;0.00;0.00;;;;;15.30;73.38;101059.16;5061495;28;45280;-63
2021/12/30 05:02:41;;;;;;;;;0.00;0.00;;;;;15.28;73.58;101059.34;5058180;28;45265;-64
2021/12/30 05:05:07;;;;;;;;;0.00;0.00;;;;;15.31;73.61;101065.31;5059184;28;45409;-63
2021/12/30 05:07:32;;;;;;;;;0.50;0.00;;;;;15.30;73.51;101071.59;5058837;28;45631;-64
2021/12/30 05:09:58;;;;;;;;;0.00;0.00;;;;;15.29;73.57;101081.34;5058903;28;46453;-64
2021/12/30 05:12:23;;;;;;;;;0.50;0.50;;;;;15.29;73.41;101091.91;5058906;28;45298;-62
2021/12/30 05:14:48;;;;;;;;;1.00;0.00;;;;;15.29;73.49;101094.56;5058806;28;45595;-63
2021/12/30 05:17:14;;;;;;;;;1.00;0.00;;;;;15.28;73.51;101099.03;5057988;28;66570;-63
2021/12/30 05:19:39;;;;;;;;;0.00;0.00;;;;;15.28;73.31;101107.00;5057802;28;66523;-64
2021/12/30 05:22:05;;;;;;;;;1.00;0.00;;;;;15.30;73.49;101098.06;5057655;28;69937;-63
2021/12/30 05:24:30;;;;;;;;;0.00;0.00;;;;;15.30;73.31;101092.78;5058832;28;45377;-64
2021/12/30 05:26:55;;;;;;;;;0.00;0.00;;;;;15.28;73.70;101091.09;5058225;28;54785;-62
2021/12/30 05:29:21;;;;;;;;;0.00;0.00;;;;;15.27;73.30;101092.09;5057533;28;70937;-62
2021/12/30 05:31:46;;;;;;;;;0.25;0.25;;;;;15.28;73.26;101092.91;5058488;28;45310;-64
2021/12/30 05:34:11;;;;;;;;;0.75;0.00;;;;;15.26;73.43;101094.88;5057746;28;64457;-61
2021/12/30 05:36:37;;;;;;;;;0.00;0.00;;;;;15.25;73.31;101101.16;5058018;28;63201;-63
2021/12/30 05:39:02;;;;;;;;;0.00;0.00;;;;;15.24;73.17;101105.63;5057629;28;69875;-63
2021/12/30 05:41:29;;;;;;;;;0.00;0.00;;;;;15.22;73.45;101112.03;5058391;28;45457;-61
2021/12/30 05:43:55;;;;;;;;;0.50;0.00;;;;;15.19;73.49;101107.91;5058508;28;45386;-63
2021/12/30 05:46:20;;;;;;;;;2.00;1.00;;;;;15.19;73.49;101118.50;5058345;28;45333;-62
2021/12/30 05:48:46;;;;;;;;;1.00;1.00;;;;;15.19;73.38;101117.63;5057136;28;72816;-63
2021/12/30 05:51:11;;;;;;;;;0.25;0.25;;;;;15.16;73.33;101124.09;5073845;28;45416;-65
2021/12/30 05:53:36;;;;;;;;;2.75;1.00;;;;;15.15;73.58;101111.84;5057260;28;63545;-62
2021/12/30 05:56:02;;;;;;;;;6.00;6.00;;;;;15.14;73.46;101116.28;5057908;28;50289;-62
2021/12/30 05:58:27;;;;;;;;;5.25;4.75;;;;;15.10;73.47;101114.91;5057954;28;46980;-63
2021/12/30 06:00:52;;;;;;;;;4.50;2.75;;;;;15.09;73.08;101136.25;5057121;28;67224;-64
2021/12/30 06:03:19;;;;;;;;;6.25;4.25;;;;;15.05;73.45;101145.47;5058159;28;45709;-62
2021/12/30 06:05:48;;;;;;;;;4.00;2.50;;;;;15.01;73.46;101154.69;5057413;28;45323;-63
2021/12/30 06:08:13;;;;;;;;;2.00;2.00;;;;;14.98;73.59;101159.31;5057573;28;47688;-62
2021/12/30 06:10:40;;;;;;;;;4.00;3.50;;;;;14.97;74.16;101151.53;5056934;28;69462;-64
2021/12/30 06:13:05;;;;;;;;;3.00;0.25;;;;;14.95;73.96;101150.84;5057464;28;45278;-63
2021/12/30 06:15:31;;;;;;;;;1.50;0.00;;;;;14.94;73.52;101150.00;5056938;28;66794;-63
2021/12/30 06:17:56;;;;;;;;;1.50;1.00;;;;;14.92;73.62;101157.25;5056503;28;74113;-64
2021/12/30 06:20:21;;;;;;;;;1.75;0.75;;;;;14.92;73.55;101153.78;5056385;28;72440;-63
2021/12/30 06:22:48;;;;;;;;;1.50;1.00;;;;;14.90;73.70;101145.16;5057746;28;45338;-63
2021/12/30 06:25:14;;;;;;;;;0.75;0.25;;;;;14.88;73.64;101147.94;5057601;28;45724;-64
2021/12/30 06:27:39;;;;;;;;;1.00;1.00;;;;;14.88;73.29;101150.59;5072775;28;52963;-62
2021/12/30 06:30:05;;;;;;;;;1.25;1.25;;;;;14.85;73.45;101161.47;5057473;28;45424;-62
2021/12/30 06:32:31;;;;;;;;;1.25;1.00;;;;;14.83;73.68;101160.81;5057011;28;45502;-62
2021/12/30 06:34:56;;;;;;;;;2.75;0.75;;;;;14.80;73.22;101153.19;5057528;28;45449;-63
2021/12/30 06:37:21;;;;;;;;;1.25;0.75;;;;;14.77;73.46;101159.59;5056269;28;73524;-62
2021/12/30 06:39:47;;;;;;;;;2.50;0.75;;;;;14.76;73.43;101165.84;5056397;28;68063;-64
2021/12/30 06:42:12;;;;;;;;;2.00;0.75;;;;;14.73;73.37;101166.16;5056719;28;60825;-64
2021/12/30 06:44:37;;;;;;;;;2.75;0.75;;;;;14.72;73.18;101174.25;5056631;28;58871;-62
2021/12/30 06:47:05;;;;;;;;;2.00;0.75;;;;;14.69;73.12;101160.34;5055993;28;45398;-63
2021/12/30 06:49:35;;;;;;;;;1.25;0.75;;;;;14.69;73.44;101168.28;5057089;28;45832;-63
2021/12/30 06:52:05;;;;;;;;;1.75;0.75;;;;;14.66;73.53;101183.56;5056996;28;45365;-64
2021/12/30 06:54:30;;;;;;;;;3.75;2.50;;;;;14.63;73.28;101183.84;5056982;28;45342;-65
2021/12/30 06:56:56;;;;;;;;;3.25;1.50;;;;;14.61;73.46;101185.81;5055985;28;69792;-63
2021/12/30 06:59:21;;;;;;;;;2.50;1.00;;;;;14.59;73.68;101178.03;5056914;28;45334;-64
2021/12/30 07:01:47;;;;;;;;;3.25;1.25;;;;;14.56;73.72;101169.56;5056957;28;45891;-63
2021/12/30 07:04:12;;;;;;;;;6.00;3.50;;;;;14.52;73.47;101175.16;5056244;28;63893;-63
2021/12/30 07:06:38;;;;;;;;;2.25;0.50;;;;;14.50;73.49;101173.63;5071637;28;71704;-65
2021/12/30 07:09:03;;;;;;;;;3.50;1.75;;;;;14.46;73.58;101185.47;5056929;28;45454;-63
2021/12/30 07:11:28;;;;;;;;;6.75;1.50;;;;;14.43;73.62;101186.59;5056179;28;66376;-62
2021/12/30 07:13:54;;;;;;;;;2.75;0.50;;;;;14.43;73.77;101191.88;5056211;28;61025;-63
2021/12/30 07:16:19;;;;;;;;;5.50;2.00;;;;;14.39;73.93;101186.03;5056623;28;48052;-62
2021/12/30 07:18:44;;;;;;;;;2.25;0.50;;;;;14.37;73.82;101193.28;5054612;28;66884;-63
2021/12/30 07:21:10;;;;;;;;;2.25;2.25;;;;;14.35;73.74;101191.78;5056026;28;60861;-63
2021/12/30 07:23:35;;;;;;;;;1.50;1.50;;;;;14.31;73.85;101207.06;5055021;28;66433;-63
2021/12/30 07:26:01;;;;;;;;;6.00;1.75;;;;;14.29;73.74;101195.00;5055548;28;68204;-65
2021/12/30 07:28:26;;;;;;;;;1.50;1.50;;;;;14.26;74.00;101206.69;5055125;28;45394;-63
2021/12/30 07:30:52;;;;;;;;;4.50;3.00;;;;;14.24;74.12;101203.34;5055699;28;65062;-63
2021/12/30 07:33:17;;;;;;;;;4.00;1.25;;;;;14.22;73.88;101215.88;5056586;28;45286;-63
2021/12/30 07:35:43;;;;;;;;;3.25;1.75;;;;;14.23;74.00;101218.38;5056409;28;45282;-63
2021/12/30 07:38:08;;;;;;;;;1.75;1.50;;;;;14.20;73.72;101217.84;5056265;28;45367;-63
2021/12/30 07:40:34;;;;;;;;;2.50;1.50;;;;;14.17;74.06;101213.66;5056343;28;45313;-64
2021/12/30 07:42:59;;;;;;;;;4.25;1.50;;;;;14.15;74.00;101214.78;5056557;28;45512;-63
2021/12/30 07:45:24;;;;;;;;;3.75;1.50;;;;;14.13;74.17;101208.81;5056046;28;45394;-62
2021/12/30 07:47:50;;;;;;;;;3.50;2.25;;;;;14.14;74.17;101210.47;5053898;28;71370;-63
2021/12/30 07:50:16;;;;;;;;;6.50;2.75;;;;;14.14;73.92;101210.47;5056018;28;45281;-64
2021/12/30 07:52:41;;;;;;;;;4.00;3.25;;;;;14.13;74.12;101220.19;5055439;28;62743;-62
2021/12/30 07:55:07;;;;;;;;;5.00;1.50;;;;;14.13;73.93;101219.38;5055515;28;46052;-63
2021/12/30 07:57:32;;;;;;;;;5.00;2.00;;;;;14.12;74.12;101226.47;5054828;28;45382;-61
2021/12/30 07:59:58;;;;;;;;;3.50;2.50;;;;;14.12;73.93;101225.63;5038184;28;45806;-63
2021/12/30 08:02:23;;;;;;;;;6.25;4.25;;;;;14.11;73.76;101230.06;5055069;28;69386;-62
2021/12/30 08:04:48;;;;;;;;;5.50;1.50;;;;;14.12;73.79;101231.75;5055238;28;57040;-62
2021/12/30 08:07:19;;;;;;;;;3.25;1.75;;;;;14.12;73.95;101249.44;5055265;28;62755;-63
2021/12/30 08:09:44;;;;;;;;;8.50;3.00;;;;;14.12;74.19;101249.44;5055079;28;45341;-61
2021/12/30 08:12:10;;;;;;;;;3.75;1.00;;;;;14.13;73.76;101253.72;5055391;28;63678;-63
2021/12/30 08:14:35;;;;;;;;;4.50;2.00;;;;;14.15;73.65;101262.34;5055036;28;71638;-64
2021/12/30 08:17:00;;;;;;;;;6.75;4.00;;;;;14.16;73.67;101266.66;5070736;28;70507;-65
2021/12/30 08:19:26;;;;;;;;;2.75;2.00;;;;;14.18;73.88;101275.28;5055232;28;63698;-62
2021/12/30 08:21:51;;;;;;;;;3.50;2.75;;;;;14.17;73.86;101276.25;5055680;28;48192;-62
2021/12/30 08:24:17;;;;;;;;;3.00;2.00;;;;;14.19;73.77;101279.59;5054988;28;70192;-63
2021/12/30 08:26:42;;;;;;;;;11.25;7.25;;;;;14.22;73.83;101287.25;5054742;28;71762;-62
2021/12/30 08:29:07;;;;;;;;;5.50;4.50;;;;;14.22;73.49;101297.81;5055391;28;52394;-63
2021/12/30 08:31:33;;;;;;;;;4.75;1.50;;;;;14.22;73.67;101290.72;5070641;28;65491;-62
2021/12/30 08:33:59;;;;;;;;;4.25;1.50;;;;;14.23;73.30;101297.66;5054438;28;46480;-64
2021/12/30 08:36:24;;;;;;;;;3.50;3.25;;;;;14.24;73.41;101299.34;5058347;28;45982;-62
2021/12/30 08:38:50;;;;;;;;;6.00;3.50;;;;;14.26;73.44;101301.84;5074147;28;68587;-61
2021/12/30 08:41:15;;;;;;;;;2.75;2.75;;;;;14.28;73.63;101299.06;5065126;28;66393;-63
2021/12/30 08:43:41;;;;;;;;;4.75;1.50;;;;;14.29;73.21;101301.56;5043586;28;45468;-62
2021/12/30 08:46:06;;;;;;;;;6.25;2.50;;;;;14.31;73.28;101304.06;5038184;28;64635;-63
2021/12/30 08:48:31;;;;;;;;;2.50;2.50;;;;;14.32;73.08;101313.66;5057005;28;45264;-63
2021/12/30 08:50:57;;;;;;;;;3.50;2.25;;;;;14.33;73.42;101317.97;5037373;28;62814;-62
2021/12/30 08:53:25;;;;;;;;;9.50;5.00;;;;;14.33;73.13;101323.25;5036731;28;47325;-61
2021/12/30 08:55:51;;;;;;;;;8.75;6.50;;;;;14.34;73.02;101325.75;5038053;28;45998;-63
2021/12/30 08:58:16;;;;;;;;;8.25;5.75;;;;;14.34;73.01;101317.81;5055902;28;45364;-61
2021/12/30 09:00:46;;;;;;;;;6.00;3.75;;;;;14.36;72.84;101317.69;5056279;28;45397;-62
2021/12/30 09:03:11;;;;;;;;;5.25;4.50;;;;;14.36;72.78;101318.50;5039927;28;47179;-62
2021/12/30 09:05:37;;;;;;;;;9.75;5.25;;;;;14.39;72.74;101317.41;5041796;28;45412;-61
2021/12/30 09:08:03;;;;;;;;;6.50;4.25;;;;;14.39;72.98;101323.50;5041178;28;58161;-60
2021/12/30 09:10:30;;;;;;;;;10.25;7.25;;;;;14.42;72.78;101318.91;5042007;28;45562;-60
2021/12/30 09:12:55;;;;;;;;;3.25;3.00;;;;;14.42;72.74;101321.56;5042991;28;46316;-63
2021/12/30 09:15:23;;;;;;;;;3.25;2.75;;;;;14.44;72.75;101324.91;5042867;28;45393;-61
2021/12/30 09:17:49;;;;;;;;;7.75;5.75;;;;;14.46;72.53;101328.22;5047598;28;45522;-60
2021/12/30 09:20:14;;;;;;;;;8.50;3.75;;;;;14.48;72.44;101321.00;5046084;28;45553;-61
2021/12/30 09:22:40;;;;;;;;;4.25;2.50;;;;;14.49;72.01;101331.44;5045214;28;63368;-61
2021/12/30 09:25:07;;;;;;;;;5.00;3.25;;;;;14.50;72.29;101329.63;5048079;28;62835;-61
2021/12/30 09:27:36;;;;;;;;;4.25;2.75;;;;;14.51;72.32;101324.22;5045265;28;45528;-61
2021/12/30 09:30:03;;;;;;;;;4.50;2.75;;;;;14.53;71.85;101334.63;5047611;28;45461;-64
2021/12/30 09:32:28;;;;;;;;;9.25;4.00;;;;;14.53;72.10;101329.34;5049958;28;45931;-65
2021/12/30 09:34:54;;;;;;;;;5.25;2.00;;;;;14.56;71.67;101326.41;5049598;28;70819;-63
2021/12/30 09:37:19;;;;;;;;;7.25;2.75;;;;;14.58;71.40;101332.38;5050316;28;63268;-64
2021/12/30 09:39:44;;;;;;;;;5.75;3.25;;;;;14.60;71.94;101340.16;5049612;28;63048;-63
2021/12/30 09:42:10;;;;;;;;;3.50;1.50;;;;;14.61;71.65;101336.56;5051649;28;74532;-64
2021/12/30 09:44:35;;;;;;;;;6.25;3.25;;;;;14.62;71.81;101339.06;5055207;28;45361;-64
2021/12/30 09:47:01;;;;;;;;;5.50;4.00;;;;;14.64;71.67;101331.81;5040321;28;64778;-63
2021/12/30 09:49:26;;;;;;;;;6.50;4.00;;;;;14.67;71.60;101338.63;5051467;28;63011;-64
2021/12/30 09:51:52;;;;;;;;;4.50;2.00;;;;;14.68;71.61;101330.56;5056701;28;45545;-63
2021/12/30 09:54:17;;;;;;;;;3.50;3.00;;;;;14.71;71.41;101329.47;5042514;28;47818;-64
2021/12/30 09:56:43;;;;;;;;;3.25;3.00;;;;;14.76;71.27;101336.97;5045531;28;45564;-64
2021/12/30 09:59:09;;;;;;;;;6.25;3.00;;;;;14.76;71.35;101332.50;5037127;28;45379;-62
2021/12/30 10:01:36;;;;;;;;;4.75;2.00;;;;;14.80;71.38;101335.72;5037595;28;45394;-64
2021/12/30 10:04:01;;;;;;;;;3.75;2.00;;;;;14.84;70.97;101348.50;5060615;28;45517;-64
2021/12/30 10:06:27;;;;;;;;;8.75;3.00;;;;;14.86;71.50;101345.69;5038975;28;45455;-64
2021/12/30 10:09:10;;;;;;;;;4.75;3.25;;;;;14.89;70.99;101344.59;5045540;28;45928;-64
2021/12/30 10:12:00;;;;;;;;;6.75;4.50;;;;;14.92;71.29;101353.06;5045057;28;46237;-64
2021/12/30 10:14:34;;;;;;;;;6.75;4.25;;;;;14.97;70.87;101344.69;5039836;28;45327;-63
2021/12/30 10:17:19;;;;;;;;;10.75;9.00;;;;;15.02;70.79;101355.69;5042994;28;45513;-63
2021/12/30 10:19:44;;;;;;;;;10.50;4.00;;;;;15.06;70.76;101348.28;5045946;28;45594;-62
2021/12/30 10:22:11;;;;;;;;;4.00;3.00;;;;;15.08;70.48;101360.41;5040342;28;72706;-63
2021/12/30 10:24:36;;;;;;;;;6.50;3.00;;;;;15.11;70.81;101344.22;5043200;28;46478;-65
2021/12/30 10:27:02;;;;;;;;;6.50;2.25;;;;;15.15;70.38;101344.75;5041629;28;45510;-63
2021/12/30 10:29:28;;;;;;;;;6.25;4.00;;;;;15.18;70.46;101355.06;5043677;28;45762;-63
2021/12/30 10:31:53;;;;;;;;;3.50;2.00;;;;;15.23;70.14;101367.84;5042215;28;46313;-65
2021/12/30 10:34:19;;;;;;;;;4.00;3.25;;;;;15.26;70.23;101357.81;5044793;28;45563;-64
2021/12/30 10:36:46;;;;;;;;;6.75;2.50;;;;;15.30;69.92;101362.81;5061254;28;45684;-65
2021/12/30 10:39:26;;;;;;;;;9.50;8.50;;;;;15.33;70.02;101359.88;5045213;28;45660;-65
2021/12/30 10:42:16;;;;;;;;;5.00;3.75;;;;;15.36;70.12;101357.75;5045948;28;45638;-64
2021/12/30 10:44:54;;;;;;;;;4.50;4.50;;;;;15.40;69.83;101360.94;5046379;28;45340;-63
2021/12/30 10:47:27;;;;;;;;;4.50;2.25;;;;;15.43;69.68;101355.34;5048624;28;45350;-65
2021/12/30 10:49:59;;;;;;;;;7.00;4.25;;;;;15.45;69.80;101356.03;5048308;28;45551;-63
2021/12/30 10:52:25;;;;;;;;;3.00;3.00;;;;;15.46;69.62;101357.69;5051089;28;45438;-64
2021/12/30 10:54:52;;;;;;;;;5.50;3.75;;;;;15.49;69.40;101362.69;5049430;28;45989;-64
2021/12/30 10:57:17;;;;;;;;;5.75;4.00;;;;;15.49;69.39;101351.28;5051106;28;45259;-64
2021/12/30 10:59:43;;;;;;;;;3.00;2.25;;;;;15.48;69.42;101361.03;5050957;28;45436;-64
2021/12/30 11:02:15;;;;;;;;;5.75;3.00;;;;;15.48;69.03;101352.28;5067785;28;50127;-62
2021/12/30 11:04:46;;;;;;;;;3.75;3.25;;;;;15.49;69.26;101341.50;5067283;28;45389;-62
2021/12/30 11:07:32;;;;;;;;;6.00;3.00;;;;;15.51;69.31;101350.16;5053319;28;45391;-63
2021/12/30 11:09:58;;;;;;;;;6.75;3.50;;;;;15.50;69.36;101343.19;5035786;28;45333;-63
2021/12/30 11:12:25;;;;;;;;;5.75;2.50;;;;;15.50;69.27;101351.13;5054903;28;74372;-64
2021/12/30 11:14:50;;;;;;;;;4.75;3.75;;;;;15.50;69.51;101343.19;5035818;28;45275;-63
2021/12/30 11:17:18;;;;;;;;;5.00;3.00;;;;;15.52;69.20;101346.50;5057974;28;45338;-63
2021/12/30 11:19:47;;;;;;;;;4.00;3.00;;;;;15.53;69.15;101336.75;5035144;28;45604;-63
2021/12/30 11:22:14;;;;;;;;;5.00;4.00;;;;;15.53;69.33;101342.88;5039934;28;45411;-63
2021/12/30 11:24:40;;;;;;;;;7.75;3.75;;;;;15.55;69.23;101340.91;5040759;28;45460;-63
2021/12/30 11:27:07;;;;;;;;;7.25;6.00;;;;;15.57;69.26;101346.91;5040506;28;45778;-63